Strona główna
METAR-TAF:

METAR-TAF

Lotnisko :

Madison, Dakota Południowa, Stany Zjednoczone

Szerokość geograficzna: 44-00-59N, Długość geograficzna: 097-05-08W, wysokość: 524 m

Aktualna obserwacja pogody

Raport powstał 14 minut temu, godzina 03:15 UTC
Wiatr 7 kt od zachód
Temperatura -12°C
Wilgotność 100%
Ciśnienie 1014 hPa
Widzialność: 16.1 km
Zachmurzenie całkowite na wysokości 7500 ft

METAR: KMDS 100315Z AUTO 27007KT 10SM OVC075 M12/M12 A2993 RMK AO2

czas: 20:29 (03:29 UTC)


TAF: brakujący

Obserwacja i prognoza pogody dla ponad 4000 lotnisk (raport METAR i TAF).

Dostępne stacje oznaczono żółtymi i czerwonymi punktami na mapie.

Najedź kursorem aby zobaczyć nazwę stacji.

Kliknij aby zobaczyć obserwacje i prognozy pogody.

Aby zmienić mapę: kliknij na zielony przycisk z czarnym krzyżykiem, aby powiększyć; na zielony przycisk z myślnikiem, aby pomniejszyć; na zielone strzałki, aby przejść do map sąsiednich.


METAR-TAF: